Terminal Aerodrome Forecast
Issued by NWS Shreveport, LA

Home | Current Version | Previous Version | Text Only | Print | Product List | Glossary On
Versions: 1 2 3 4 5 6 7 8 9 10 11 12 13 14 15 16 17 18
758
FTUS44 KSHV 301720
TAFELD
TAF
KELD 301720Z 3018/0118 22008KT P6SM BKN014 OVC100
     FM302000 23013G20KT P6SM SCT110
     FM010000 21009KT P6SM SCT045
     FM010900 22007KT P6SM SKC
     FM011400 24010G17KT P6SM SKC=

USA.gov is the U.S. government's official web portal to all federal, state and local government web resources and services.